sensor_id;sensor_type;location;lat;lon;timestamp;temperature;humidity
19888;DHT22;10106;51.332;12.336;2023-07-24T00:00:59;21.00;99.90
19888;DHT22;10106;51.332;12.336;2023-07-24T00:03:25;21.00;99.90
19888;DHT22;10106;51.332;12.336;2023-07-24T00:05:51;21.00;99.90
19888;DHT22;10106;51.332;12.336;2023-07-24T00:08:16;20.90;94.90
19888;DHT22;10106;51.332;12.336;2023-07-24T00:10:42;20.90;1.00
19888;DHT22;10106;51.332;12.336;2023-07-24T00:13:07;20.90;1.00
19888;DHT22;10106;51.332;12.336;2023-07-24T00:15:33;20.80;74.60
19888;DHT22;10106;51.332;12.336;2023-07-24T00:17:58;20.80;99.90
19888;DHT22;10106;51.332;12.336;2023-07-24T00:20:24;20.80;99.90
19888;DHT22;10106;51.332;12.336;2023-07-24T00:22:50;20.70;28.20
19888;DHT22;10106;51.332;12.336;2023-07-24T00:25:16;20.60;99.90
19888;DHT22;10106;51.332;12.336;2023-07-24T00:27:41;20.60;1.00
19888;DHT22;10106;51.332;12.336;2023-07-24T00:30:07;20.60;99.90
19888;DHT22;10106;51.332;12.336;2023-07-24T00:32:33;20.50;1.80
19888;DHT22;10106;51.332;12.336;2023-07-24T00:34:58;20.50;1.00
19888;DHT22;10106;51.332;12.336;2023-07-24T00:37:24;20.50;99.90
19888;DHT22;10106;51.332;12.336;2023-07-24T00:39:50;20.40;1.00
19888;DHT22;10106;51.332;12.336;2023-07-24T00:42:15;20.40;99.90
19888;DHT22;10106;51.332;12.336;2023-07-24T00:44:41;20.40;99.90
19888;DHT22;10106;51.332;12.336;2023-07-24T00:47:07;20.40;1.00
19888;DHT22;10106;51.332;12.336;2023-07-24T00:49:33;20.40;99.90
19888;DHT22;10106;51.332;12.336;2023-07-24T00:51:58;20.40;99.90
19888;DHT22;10106;51.332;12.336;2023-07-24T00:54:24;20.40;99.90
19888;DHT22;10106;51.332;12.336;2023-07-24T00:56:53;20.40;99.90
19888;DHT22;10106;51.332;12.336;2023-07-24T00:59:18;20.40;99.90
19888;DHT22;10106;51.332;12.336;2023-07-24T01:01:45;20.40;99.90
19888;DHT22;10106;51.332;12.336;2023-07-24T01:04:11;20.40;99.90
19888;DHT22;10106;51.332;12.336;2023-07-24T01:06:37;20.40;1.00
19888;DHT22;10106;51.332;12.336;2023-07-24T01:09:03;20.50;1.00
19888;DHT22;10106;51.332;12.336;2023-07-24T01:11:30;20.50;66.80
19888;DHT22;10106;51.332;12.336;2023-07-24T01:13:59;20.60;99.90
19888;DHT22;10106;51.332;12.336;2023-07-24T01:16:31;20.60;1.00
19888;DHT22;10106;51.332;12.336;2023-07-24T01:18:58;20.60;99.90
19888;DHT22;10106;51.332;12.336;2023-07-24T01:21:29;20.60;99.90
19888;DHT22;10106;51.332;12.336;2023-07-24T01:24:03;20.50;1.00
19888;DHT22;10106;51.332;12.336;2023-07-24T01:26:35;20.50;99.90
19888;DHT22;10106;51.332;12.336;2023-07-24T01:29:00;20.40;1.00
19888;DHT22;10106;51.332;12.336;2023-07-24T01:31:26;20.40;99.90
19888;DHT22;10106;51.332;12.336;2023-07-24T01:33:52;20.40;1.00
19888;DHT22;10106;51.332;12.336;2023-07-24T01:36:18;20.40;32.20
19888;DHT22;10106;51.332;12.336;2023-07-24T01:38:44;20.30;99.90
19888;DHT22;10106;51.332;12.336;2023-07-24T01:41:10;20.30;99.90
19888;DHT22;10106;51.332;12.336;2023-07-24T01:43:36;20.20;99.90
19888;DHT22;10106;51.332;12.336;2023-07-24T01:46:02;20.20;1.00
19888;DHT22;10106;51.332;12.336;2023-07-24T01:48:27;20.20;1.00
19888;DHT22;10106;51.332;12.336;2023-07-24T01:50:53;20.20;1.00
19888;DHT22;10106;51.332;12.336;2023-07-24T01:53:18;20.20;1.00
19888;DHT22;10106;51.332;12.336;2023-07-24T01:55:44;20.20;1.00
19888;DHT22;10106;51.332;12.336;2023-07-24T01:58:10;20.20;1.00
19888;DHT22;10106;51.332;12.336;2023-07-24T02:00:35;20.10;1.00
19888;DHT22;10106;51.332;12.336;2023-07-24T02:03:01;20.10;1.00
19888;DHT22;10106;51.332;12.336;2023-07-24T02:05:26;20.10;1.00
19888;DHT22;10106;51.332;12.336;2023-07-24T02:07:52;20.00;1.00
19888;DHT22;10106;51.332;12.336;2023-07-24T02:10:18;20.00;1.00
19888;DHT22;10106;51.332;12.336;2023-07-24T02:12:43;20.00;1.00
19888;DHT22;10106;51.332;12.336;2023-07-24T02:15:09;20.00;1.00
19888;DHT22;10106;51.332;12.336;2023-07-24T02:17:35;20.00;1.00
19888;DHT22;10106;51.332;12.336;2023-07-24T02:20:00;19.90;1.00
19888;DHT22;10106;51.332;12.336;2023-07-24T02:22:26;19.90;1.00
19888;DHT22;10106;51.332;12.336;2023-07-24T02:24:52;19.90;1.00
19888;DHT22;10106;51.332;12.336;2023-07-24T02:27:27;19.90;1.00
19888;DHT22;10106;51.332;12.336;2023-07-24T02:29:53;19.90;1.00
19888;DHT22;10106;51.332;12.336;2023-07-24T02:32:20;19.80;1.00
19888;DHT22;10106;51.332;12.336;2023-07-24T02:34:50;19.80;1.00
19888;DHT22;10106;51.332;12.336;2023-07-24T02:37:16;19.80;1.00
19888;DHT22;10106;51.332;12.336;2023-07-24T02:39:42;19.80;1.00
19888;DHT22;10106;51.332;12.336;2023-07-24T02:42:07;19.80;1.00
19888;DHT22;10106;51.332;12.336;2023-07-24T02:44:34;19.80;1.00
19888;DHT22;10106;51.332;12.336;2023-07-24T02:46:59;19.80;1.00
19888;DHT22;10106;51.332;12.336;2023-07-24T02:49:25;19.80;1.00
19888;DHT22;10106;51.332;12.336;2023-07-24T02:51:51;19.70;1.00
19888;DHT22;10106;51.332;12.336;2023-07-24T02:54:16;19.80;1.00
19888;DHT22;10106;51.332;12.336;2023-07-24T02:56:42;19.80;1.00
19888;DHT22;10106;51.332;12.336;2023-07-24T02:59:08;19.70;1.00
19888;DHT22;10106;51.332;12.336;2023-07-24T03:01:33;19.70;1.00
19888;DHT22;10106;51.332;12.336;2023-07-24T03:03:59;19.70;1.00
19888;DHT22;10106;51.332;12.336;2023-07-24T03:06:25;19.70;1.00
19888;DHT22;10106;51.332;12.336;2023-07-24T03:08:51;19.60;1.00
19888;DHT22;10106;51.332;12.336;2023-07-24T03:11:16;19.50;1.00
19888;DHT22;10106;51.332;12.336;2023-07-24T03:13:42;19.50;1.00
19888;DHT22;10106;51.332;12.336;2023-07-24T03:16:08;19.50;1.00
19888;DHT22;10106;51.332;12.336;2023-07-24T03:18:34;19.50;1.00
19888;DHT22;10106;51.332;12.336;2023-07-24T03:20:59;19.60;1.00
19888;DHT22;10106;51.332;12.336;2023-07-24T03:23:25;19.60;1.00
19888;DHT22;10106;51.332;12.336;2023-07-24T03:25:50;19.70;1.00
19888;DHT22;10106;51.332;12.336;2023-07-24T03:28:16;19.70;1.00
19888;DHT22;10106;51.332;12.336;2023-07-24T03:30:41;19.70;1.00
19888;DHT22;10106;51.332;12.336;2023-07-24T03:33:07;19.80;1.00
19888;DHT22;10106;51.332;12.336;2023-07-24T03:35:33;19.80;1.00
19888;DHT22;10106;51.332;12.336;2023-07-24T03:37:58;19.90;1.00
19888;DHT22;10106;51.332;12.336;2023-07-24T03:40:24;20.00;1.00
19888;DHT22;10106;51.332;12.336;2023-07-24T03:42:50;20.00;1.00
19888;DHT22;10106;51.332;12.336;2023-07-24T03:45:15;20.10;1.00
19888;DHT22;10106;51.332;12.336;2023-07-24T03:47:41;20.10;1.00
19888;DHT22;10106;51.332;12.336;2023-07-24T03:50:07;20.20;1.00
19888;DHT22;10106;51.332;12.336;2023-07-24T03:52:32;20.20;1.00
19888;DHT22;10106;51.332;12.336;2023-07-24T03:54:58;20.30;1.00
19888;DHT22;10106;51.332;12.336;2023-07-24T03:57:24;20.30;1.00
19888;DHT22;10106;51.332;12.336;2023-07-24T03:59:49;20.60;1.00
19888;DHT22;10106;51.332;12.336;2023-07-24T04:02:15;21.20;1.00
19888;DHT22;10106;51.332;12.336;2023-07-24T04:04:41;21.80;1.00
19888;DHT22;10106;51.332;12.336;2023-07-24T04:07:06;22.50;1.00
19888;DHT22;10106;51.332;12.336;2023-07-24T04:09:32;23.10;1.00
19888;DHT22;10106;51.332;12.336;2023-07-24T04:11:57;23.80;1.00
19888;DHT22;10106;51.332;12.336;2023-07-24T04:14:23;24.00;1.00
19888;DHT22;10106;51.332;12.336;2023-07-24T04:16:49;23.70;1.00
19888;DHT22;10106;51.332;12.336;2023-07-24T04:19:14;23.40;1.00
19888;DHT22;10106;51.332;12.336;2023-07-24T04:21:40;22.90;1.00
19888;DHT22;10106;51.332;12.336;2023-07-24T04:24:06;22.60;1.00
19888;DHT22;10106;51.332;12.336;2023-07-24T04:26:31;22.40;1.00
19888;DHT22;10106;51.332;12.336;2023-07-24T04:28:57;22.30;1.00
19888;DHT22;10106;51.332;12.336;2023-07-24T04:31:22;22.30;99.90
19888;DHT22;10106;51.332;12.336;2023-07-24T04:33:48;22.80;1.00
19888;DHT22;10106;51.332;12.336;2023-07-24T04:36:14;23.80;1.00
19888;DHT22;10106;51.332;12.336;2023-07-24T04:38:39;24.70;1.00
19888;DHT22;10106;51.332;12.336;2023-07-24T04:41:05;25.60;99.90
19888;DHT22;10106;51.332;12.336;2023-07-24T04:43:30;26.10;1.00
19888;DHT22;10106;51.332;12.336;2023-07-24T04:45:56;26.60;99.90
19888;DHT22;10106;51.332;12.336;2023-07-24T04:48:22;27.20;99.90
19888;DHT22;10106;51.332;12.336;2023-07-24T04:50:52;27.70;99.90
19888;DHT22;10106;51.332;12.336;2023-07-24T04:53:18;27.80;99.90
19888;DHT22;10106;51.332;12.336;2023-07-24T04:55:45;27.90;99.90
19888;DHT22;10106;51.332;12.336;2023-07-24T04:58:10;27.80;99.90
19888;DHT22;10106;51.332;12.336;2023-07-24T05:08:13;29.40;99.90
19888;DHT22;10106;51.332;12.336;2023-07-24T05:10:38;29.90;99.90
19888;DHT22;10106;51.332;12.336;2023-07-24T05:13:04;30.20;99.90
19888;DHT22;10106;51.332;12.336;2023-07-24T05:15:29;30.10;99.90
19888;DHT22;10106;51.332;12.336;2023-07-24T05:17:55;29.30;99.90
19888;DHT22;10106;51.332;12.336;2023-07-24T05:20:21;28.60;99.90
19888;DHT22;10106;51.332;12.336;2023-07-24T05:22:47;28.00;99.90
19888;DHT22;10106;51.332;12.336;2023-07-24T05:25:13;28.20;99.90
19888;DHT22;10106;51.332;12.336;2023-07-24T05:27:38;28.50;99.90
19888;DHT22;10106;51.332;12.336;2023-07-24T05:30:04;28.20;99.90
19888;DHT22;10106;51.332;12.336;2023-07-24T05:32:30;28.30;99.90
19888;DHT22;10106;51.332;12.336;2023-07-24T05:34:56;27.80;99.90
19888;DHT22;10106;51.332;12.336;2023-07-24T05:37:21;27.40;99.90
19888;DHT22;10106;51.332;12.336;2023-07-24T05:39:47;27.10;99.90
19888;DHT22;10106;51.332;12.336;2023-07-24T05:42:13;27.80;99.90
19888;DHT22;10106;51.332;12.336;2023-07-24T05:44:38;28.70;99.90
19888;DHT22;10106;51.332;12.336;2023-07-24T05:47:04;30.00;99.90
19888;DHT22;10106;51.332;12.336;2023-07-24T05:49:29;31.00;99.90
19888;DHT22;10106;51.332;12.336;2023-07-24T05:51:55;32.20;99.90
19888;DHT22;10106;51.332;12.336;2023-07-24T05:54:22;32.70;99.90
19888;DHT22;10106;51.332;12.336;2023-07-24T05:56:48;32.80;99.90
19888;DHT22;10106;51.332;12.336;2023-07-24T05:59:13;33.10;99.90
19888;DHT22;10106;51.332;12.336;2023-07-24T06:01:39;34.00;99.90
19888;DHT22;10106;51.332;12.336;2023-07-24T06:04:04;34.10;99.90
19888;DHT22;10106;51.332;12.336;2023-07-24T06:06:32;34.00;99.90
19888;DHT22;10106;51.332;12.336;2023-07-24T06:08:58;33.80;99.90
19888;DHT22;10106;51.332;12.336;2023-07-24T06:11:23;33.90;99.90
19888;DHT22;10106;51.332;12.336;2023-07-24T06:13:49;34.00;99.90
19888;DHT22;10106;51.332;12.336;2023-07-24T06:16:15;34.00;99.90
19888;DHT22;10106;51.332;12.336;2023-07-24T06:18:40;34.60;99.90
19888;DHT22;10106;51.332;12.336;2023-07-24T06:21:08;34.90;99.90
19888;DHT22;10106;51.332;12.336;2023-07-24T06:23:33;34.50;99.90
19888;DHT22;10106;51.332;12.336;2023-07-24T06:25:59;34.60;99.90
19888;DHT22;10106;51.332;12.336;2023-07-24T06:28:25;35.30;99.90
19888;DHT22;10106;51.332;12.336;2023-07-24T06:30:53;35.90;99.90
19888;DHT22;10106;51.332;12.336;2023-07-24T06:33:19;35.80;99.90
19888;DHT22;10106;51.332;12.336;2023-07-24T06:35:48;35.80;99.90
19888;DHT22;10106;51.332;12.336;2023-07-24T06:38:14;35.70;99.90
19888;DHT22;10106;51.332;12.336;2023-07-24T06:40:40;36.10;99.90
19888;DHT22;10106;51.332;12.336;2023-07-24T06:43:05;35.70;99.90
19888;DHT22;10106;51.332;12.336;2023-07-24T06:45:34;35.80;99.90
19888;DHT22;10106;51.332;12.336;2023-07-24T06:47:59;36.30;99.90
19888;DHT22;10106;51.332;12.336;2023-07-24T06:50:25;36.10;99.90
19888;DHT22;10106;51.332;12.336;2023-07-24T06:52:50;35.80;99.90
19888;DHT22;10106;51.332;12.336;2023-07-24T06:55:19;35.60;99.90
19888;DHT22;10106;51.332;12.336;2023-07-24T06:57:44;35.50;99.90
19888;DHT22;10106;51.332;12.336;2023-07-24T07:00:10;35.30;99.90
19888;DHT22;10106;51.332;12.336;2023-07-24T07:02:37;34.90;99.90
19888;DHT22;10106;51.332;12.336;2023-07-24T07:05:03;34.30;99.90
19888;DHT22;10106;51.332;12.336;2023-07-24T07:07:28;33.80;99.90
19888;DHT22;10106;51.332;12.336;2023-07-24T07:09:54;33.90;99.90
19888;DHT22;10106;51.332;12.336;2023-07-24T07:12:20;33.20;99.90
19888;DHT22;10106;51.332;12.336;2023-07-24T07:14:45;31.80;99.90
19888;DHT22;10106;51.332;12.336;2023-07-24T07:17:11;30.50;99.90
19888;DHT22;10106;51.332;12.336;2023-07-24T07:19:36;29.60;99.90
19888;DHT22;10106;51.332;12.336;2023-07-24T07:22:02;28.80;99.90
19888;DHT22;10106;51.332;12.336;2023-07-24T07:24:28;28.50;99.90
19888;DHT22;10106;51.332;12.336;2023-07-24T07:26:53;28.50;99.90
19888;DHT22;10106;51.332;12.336;2023-07-24T07:29:20;28.90;99.90
19888;DHT22;10106;51.332;12.336;2023-07-24T07:31:46;29.70;99.90
19888;DHT22;10106;51.332;12.336;2023-07-24T07:34:12;30.70;99.90
19888;DHT22;10106;51.332;12.336;2023-07-24T07:36:37;30.80;99.90
19888;DHT22;10106;51.332;12.336;2023-07-24T07:39:03;31.00;99.90
19888;DHT22;10106;51.332;12.336;2023-07-24T07:41:28;31.60;99.90
19888;DHT22;10106;51.332;12.336;2023-07-24T07:43:54;32.50;99.90
19888;DHT22;10106;51.332;12.336;2023-07-24T07:46:20;32.10;99.90
19888;DHT22;10106;51.332;12.336;2023-07-24T07:48:48;32.00;99.90
19888;DHT22;10106;51.332;12.336;2023-07-24T07:51:14;31.20;99.90
19888;DHT22;10106;51.332;12.336;2023-07-24T07:53:40;30.30;99.90
19888;DHT22;10106;51.332;12.336;2023-07-24T07:56:05;29.30;99.90
19888;DHT22;10106;51.332;12.336;2023-07-24T07:58:32;28.90;99.90
19888;DHT22;10106;51.332;12.336;2023-07-24T08:00:57;28.60;99.90
19888;DHT22;10106;51.332;12.336;2023-07-24T08:03:23;28.50;99.90
19888;DHT22;10106;51.332;12.336;2023-07-24T08:05:49;28.40;1.00
19888;DHT22;10106;51.332;12.336;2023-07-24T08:08:14;28.30;99.90
19888;DHT22;10106;51.332;12.336;2023-07-24T08:10:40;28.30;99.90
19888;DHT22;10106;51.332;12.336;2023-07-24T08:13:06;28.70;99.90
19888;DHT22;10106;51.332;12.336;2023-07-24T08:15:36;29.20;99.90
19888;DHT22;10106;51.332;12.336;2023-07-24T08:18:03;29.60;99.90
19888;DHT22;10106;51.332;12.336;2023-07-24T08:20:28;29.60;99.90
19888;DHT22;10106;51.332;12.336;2023-07-24T08:22:54;29.80;99.90
19888;DHT22;10106;51.332;12.336;2023-07-24T08:25:20;30.30;99.90
19888;DHT22;10106;51.332;12.336;2023-07-24T08:27:45;30.70;99.90
19888;DHT22;10106;51.332;12.336;2023-07-24T08:30:11;30.70;99.90
19888;DHT22;10106;51.332;12.336;2023-07-24T08:32:37;30.90;99.90
19888;DHT22;10106;51.332;12.336;2023-07-24T08:35:02;31.40;99.90
19888;DHT22;10106;51.332;12.336;2023-07-24T08:37:28;32.00;99.90
19888;DHT22;10106;51.332;12.336;2023-07-24T08:39:54;32.20;99.90
19888;DHT22;10106;51.332;12.336;2023-07-24T08:42:19;31.70;99.90
19888;DHT22;10106;51.332;12.336;2023-07-24T08:44:45;31.90;99.90
19888;DHT22;10106;51.332;12.336;2023-07-24T08:47:11;31.70;99.90
19888;DHT22;10106;51.332;12.336;2023-07-24T08:49:38;31.50;99.90
19888;DHT22;10106;51.332;12.336;2023-07-24T08:52:05;31.90;99.90
19888;DHT22;10106;51.332;12.336;2023-07-24T08:54:31;32.80;99.90
19888;DHT22;10106;51.332;12.336;2023-07-24T08:56:58;32.80;99.90
19888;DHT22;10106;51.332;12.336;2023-07-24T08:59:23;32.50;99.90
19888;DHT22;10106;51.332;12.336;2023-07-24T09:01:49;32.60;99.90
19888;DHT22;10106;51.332;12.336;2023-07-24T09:04:15;33.20;99.90
19888;DHT22;10106;51.332;12.336;2023-07-24T09:06:40;34.80;99.90
19888;DHT22;10106;51.332;12.336;2023-07-24T09:09:16;35.60;1.00
19888;DHT22;10106;51.332;12.336;2023-07-24T09:11:51;35.40;1.00
19888;DHT22;10106;51.332;12.336;2023-07-24T09:14:24;33.90;1.00
19888;DHT22;10106;51.332;12.336;2023-07-24T09:17:01;32.80;1.00
19888;DHT22;10106;51.332;12.336;2023-07-24T09:19:26;32.80;1.00
19888;DHT22;10106;51.332;12.336;2023-07-24T09:21:52;33.50;1.00
19888;DHT22;10106;51.332;12.336;2023-07-24T09:24:18;33.80;99.90
19888;DHT22;10106;51.332;12.336;2023-07-24T09:26:50;33.90;99.90
19888;DHT22;10106;51.332;12.336;2023-07-24T09:29:16;34.10;99.90
19888;DHT22;10106;51.332;12.336;2023-07-24T09:31:42;34.00;1.00
19888;DHT22;10106;51.332;12.336;2023-07-24T09:34:15;33.70;1.00
19888;DHT22;10106;51.332;12.336;2023-07-24T09:36:41;33.60;99.90
19888;DHT22;10106;51.332;12.336;2023-07-24T09:39:07;34.00;99.90
19888;DHT22;10106;51.332;12.336;2023-07-24T09:41:36;34.10;99.90
19888;DHT22;10106;51.332;12.336;2023-07-24T09:44:01;34.20;99.90
19888;DHT22;10106;51.332;12.336;2023-07-24T09:46:27;33.80;99.90
19888;DHT22;10106;51.332;12.336;2023-07-24T09:48:58;33.00;99.90
19888;DHT22;10106;51.332;12.336;2023-07-24T09:51:24;32.10;99.90
19888;DHT22;10106;51.332;12.336;2023-07-24T09:53:55;32.10;99.90
19888;DHT22;10106;51.332;12.336;2023-07-24T09:56:21;32.90;99.90
19888;DHT22;10106;51.332;12.336;2023-07-24T09:58:48;32.10;99.90
19888;DHT22;10106;51.332;12.336;2023-07-24T10:01:14;32.30;99.90
19888;DHT22;10106;51.332;12.336;2023-07-24T10:03:49;32.60;99.90
19888;DHT22;10106;51.332;12.336;2023-07-24T10:06:16;32.00;99.90
19888;DHT22;10106;51.332;12.336;2023-07-24T10:08:42;31.30;1.00
19888;DHT22;10106;51.332;12.336;2023-07-24T10:11:11;30.70;99.90
19888;DHT22;10106;51.332;12.336;2023-07-24T10:13:37;30.10;99.90
19888;DHT22;10106;51.332;12.336;2023-07-24T10:16:04;30.30;99.90
19888;DHT22;10106;51.332;12.336;2023-07-24T10:18:32;30.40;99.90
19888;DHT22;10106;51.332;12.336;2023-07-24T10:21:05;30.60;99.90
19888;DHT22;10106;51.332;12.336;2023-07-24T10:23:34;30.80;99.90
19888;DHT22;10106;51.332;12.336;2023-07-24T10:26:04;30.50;99.90
19888;DHT22;10106;51.332;12.336;2023-07-24T10:28:34;30.30;99.90
19888;DHT22;10106;51.332;12.336;2023-07-24T10:31:04;30.20;99.90
19888;DHT22;10106;51.332;12.336;2023-07-24T19:23:35;18.30;99.90
19888;DHT22;10106;51.332;12.336;2023-07-24T19:26:01;18.20;99.90
19888;DHT22;10106;51.332;12.336;2023-07-24T19:28:37;18.20;99.90
19888;DHT22;10106;51.332;12.336;2023-07-24T19:31:12;18.20;99.90
19888;DHT22;10106;51.332;12.336;2023-07-24T20:42:41;17.10;99.90
19888;DHT22;10106;51.332;12.336;2023-07-24T20:51:32;16.90;99.90
19888;DHT22;10106;51.332;12.336;2023-07-24T20:54:01;16.90;99.90
19888;DHT22;10106;51.332;12.336;2023-07-24T20:56:26;16.90;99.90
19888;DHT22;10106;51.332;12.336;2023-07-24T21:34:34;17.20;99.90
19888;DHT22;10106;51.332;12.336;2023-07-24T21:37:00;17.20;99.90
19888;DHT22;10106;51.332;12.336;2023-07-24T21:39:26;17.20;99.90
19888;DHT22;10106;51.332;12.336;2023-07-24T21:41:54;17.20;99.90
19888;DHT22;10106;51.332;12.336;2023-07-24T21:47:28;17.10;99.90
19888;DHT22;10106;51.332;12.336;2023-07-24T21:49:57;17.10;99.90
19888;DHT22;10106;51.332;12.336;2023-07-24T21:52:22;17.10;99.90
19888;DHT22;10106;51.332;12.336;2023-07-24T22:51:58;16.60;99.90
19888;DHT22;10106;51.332;12.336;2023-07-24T22:54:24;16.60;99.90
19888;DHT22;10106;51.332;12.336;2023-07-24T22:56:52;16.60;99.90
19888;DHT22;10106;51.332;12.336;2023-07-24T22:59:22;16.50;99.90
19888;DHT22;10106;51.332;12.336;2023-07-24T23:01:49;16.50;99.90
19888;DHT22;10106;51.332;12.336;2023-07-24T23:04:18;16.60;99.90
19888;DHT22;10106;51.332;12.336;2023-07-24T23:06:47;16.60;99.90
19888;DHT22;10106;51.332;12.336;2023-07-24T23:09:18;16.60;99.90
19888;DHT22;10106;51.332;12.336;2023-07-24T23:11:47;16.60;99.90
19888;DHT22;10106;51.332;12.336;2023-07-24T23:14:15;16.60;99.90
19888;DHT22;10106;51.332;12.336;2023-07-24T23:16:41;16.60;99.90
19888;DHT22;10106;51.332;12.336;2023-07-24T23:19:06;16.60;99.90
19888;DHT22;10106;51.332;12.336;2023-07-24T23:21:32;16.60;99.90
19888;DHT22;10106;51.332;12.336;2023-07-24T23:23:58;16.50;99.90
19888;DHT22;10106;51.332;12.336;2023-07-24T23:26:23;16.50;99.90
19888;DHT22;10106;51.332;12.336;2023-07-24T23:28:52;16.50;99.90
19888;DHT22;10106;51.332;12.336;2023-07-24T23:33:57;16.50;99.90
19888;DHT22;10106;51.332;12.336;2023-07-24T23:36:23;16.50;99.90
19888;DHT22;10106;51.332;12.336;2023-07-24T23:38:48;16.50;99.90
19888;DHT22;10106;51.332;12.336;2023-07-24T23:41:14;16.50;99.90
19888;DHT22;10106;51.332;12.336;2023-07-24T23:43:40;16.40;99.90
19888;DHT22;10106;51.332;12.336;2023-07-24T23:46:09;16.40;99.90
19888;DHT22;10106;51.332;12.336;2023-07-24T23:48:36;16.40;99.90
19888;DHT22;10106;51.332;12.336;2023-07-24T23:51:01;16.40;99.90
19888;DHT22;10106;51.332;12.336;2023-07-24T23:53:27;16.30;99.90
19888;DHT22;10106;51.332;12.336;2023-07-24T23:55:53;16.30;99.90
19888;DHT22;10106;51.332;12.336;2023-07-24T23:58:18;16.30;99.90
